sensor_id;sensor_type;location;lat;lon;timestamp;temperature;humidity
55812;DHT22;41742;52.048;6.092;2022-09-01T00:01:51;16.20;99.00
55812;DHT22;41742;52.048;6.092;2022-09-01T00:04:20;16.20;99.30
55812;DHT22;41742;52.048;6.092;2022-09-01T00:06:48;16.10;99.40
55812;DHT22;41742;52.048;6.092;2022-09-01T00:09:18;16.00;99.70
55812;DHT22;41742;52.048;6.092;2022-09-01T00:11:49;16.10;99.90
55812;DHT22;41742;52.048;6.092;2022-09-01T00:14:15;16.00;99.90
55812;DHT22;41742;52.048;6.092;2022-09-01T00:16:40;16.00;99.90
55812;DHT22;41742;52.048;6.092;2022-09-01T00:19:06;16.00;99.90
55812;DHT22;41742;52.048;6.092;2022-09-01T00:21:36;16.00;99.90
55812;DHT22;41742;52.048;6.092;2022-09-01T00:24:03;16.00;99.90
55812;DHT22;41742;52.048;6.092;2022-09-01T00:26:28;16.00;99.90
55812;DHT22;41742;52.048;6.092;2022-09-01T00:28:54;15.90;99.90
55812;DHT22;41742;52.048;6.092;2022-09-01T00:31:21;15.90;99.90
55812;DHT22;41742;52.048;6.092;2022-09-01T00:33:47;15.90;99.90
55812;DHT22;41742;52.048;6.092;2022-09-01T00:36:14;15.90;99.90
55812;DHT22;41742;52.048;6.092;2022-09-01T00:38:41;15.80;99.90
55812;DHT22;41742;52.048;6.092;2022-09-01T00:41:07;15.80;99.90
55812;DHT22;41742;52.048;6.092;2022-09-01T00:43:48;15.90;99.90
55812;DHT22;41742;52.048;6.092;2022-09-01T00:46:22;15.80;99.90
55812;DHT22;41742;52.048;6.092;2022-09-01T00:49:00;15.90;99.90
55812;DHT22;41742;52.048;6.092;2022-09-01T00:51:27;15.80;99.90
55812;DHT22;41742;52.048;6.092;2022-09-01T00:53:55;15.70;99.90
55812;DHT22;41742;52.048;6.092;2022-09-01T00:56:22;15.70;99.90
55812;DHT22;41742;52.048;6.092;2022-09-01T00:58:49;15.70;99.90
55812;DHT22;41742;52.048;6.092;2022-09-01T01:01:16;15.70;99.90
55812;DHT22;41742;52.048;6.092;2022-09-01T01:03:42;15.60;99.90
55812;DHT22;41742;52.048;6.092;2022-09-01T01:06:10;15.50;99.90
55812;DHT22;41742;52.048;6.092;2022-09-01T01:08:41;15.60;99.90
55812;DHT22;41742;52.048;6.092;2022-09-01T01:11:12;15.50;99.90
55812;DHT22;41742;52.048;6.092;2022-09-01T01:14:06;15.50;99.90
55812;DHT22;41742;52.048;6.092;2022-09-01T01:16:41;15.50;99.90
55812;DHT22;41742;52.048;6.092;2022-09-01T01:19:24;15.40;99.90
55812;DHT22;41742;52.048;6.092;2022-09-01T01:22:33;15.40;99.90
55812;DHT22;41742;52.048;6.092;2022-09-01T01:25:22;15.30;99.90
55812;DHT22;41742;52.048;6.092;2022-09-01T01:27:49;15.30;99.90
55812;DHT22;41742;52.048;6.092;2022-09-01T01:30:15;15.20;99.90
55812;DHT22;41742;52.048;6.092;2022-09-01T01:32:43;15.20;99.90
55812;DHT22;41742;52.048;6.092;2022-09-01T01:35:13;15.20;99.90
55812;DHT22;41742;52.048;6.092;2022-09-01T01:37:42;15.20;99.90
55812;DHT22;41742;52.048;6.092;2022-09-01T01:40:13;15.20;99.90
55812;DHT22;41742;52.048;6.092;2022-09-01T01:42:49;15.20;99.90
55812;DHT22;41742;52.048;6.092;2022-09-01T01:45:17;15.30;99.90
55812;DHT22;41742;52.048;6.092;2022-09-01T01:47:45;15.30;99.90
55812;DHT22;41742;52.048;6.092;2022-09-01T01:52:49;15.30;99.90
55812;DHT22;41742;52.048;6.092;2022-09-01T01:55:15;15.40;99.90
55812;DHT22;41742;52.048;6.092;2022-09-01T01:57:47;15.40;99.90
55812;DHT22;41742;52.048;6.092;2022-09-01T02:00:20;15.40;99.90
55812;DHT22;41742;52.048;6.092;2022-09-01T02:02:47;15.30;99.90
55812;DHT22;41742;52.048;6.092;2022-09-01T02:05:28;15.40;99.90
55812;DHT22;41742;52.048;6.092;2022-09-01T02:08:00;15.30;99.90
55812;DHT22;41742;52.048;6.092;2022-09-01T02:10:31;15.30;99.90
55812;DHT22;41742;52.048;6.092;2022-09-01T02:12:58;15.20;99.90
55812;DHT22;41742;52.048;6.092;2022-09-01T02:15:29;15.20;99.90
55812;DHT22;41742;52.048;6.092;2022-09-01T02:17:57;15.20;99.90
55812;DHT22;41742;52.048;6.092;2022-09-01T02:20:25;15.10;99.90
55812;DHT22;41742;52.048;6.092;2022-09-01T02:22:54;15.10;99.90
55812;DHT22;41742;52.048;6.092;2022-09-01T02:25:21;15.10;99.90
55812;DHT22;41742;52.048;6.092;2022-09-01T02:27:49;15.10;99.90
55812;DHT22;41742;52.048;6.092;2022-09-01T02:30:20;15.10;99.90
55812;DHT22;41742;52.048;6.092;2022-09-01T02:32:46;15.10;99.90
55812;DHT22;41742;52.048;6.092;2022-09-01T02:35:12;15.10;99.90
55812;DHT22;41742;52.048;6.092;2022-09-01T02:37:41;15.10;99.90
55812;DHT22;41742;52.048;6.092;2022-09-01T02:40:08;15.10;99.90
55812;DHT22;41742;52.048;6.092;2022-09-01T02:42:37;15.00;99.90
55812;DHT22;41742;52.048;6.092;2022-09-01T02:45:08;15.00;99.90
55812;DHT22;41742;52.048;6.092;2022-09-01T02:47:37;15.00;99.90
55812;DHT22;41742;52.048;6.092;2022-09-01T02:50:07;15.00;99.90
55812;DHT22;41742;52.048;6.092;2022-09-01T02:52:38;14.90;99.90
55812;DHT22;41742;52.048;6.092;2022-09-01T02:55:07;14.90;99.90
55812;DHT22;41742;52.048;6.092;2022-09-01T02:57:34;14.90;99.90
55812;DHT22;41742;52.048;6.092;2022-09-01T03:00:00;14.80;99.90
55812;DHT22;41742;52.048;6.092;2022-09-01T03:02:27;14.80;99.90
55812;DHT22;41742;52.048;6.092;2022-09-01T03:04:54;14.70;99.90
55812;DHT22;41742;52.048;6.092;2022-09-01T03:07:20;14.70;99.90
55812;DHT22;41742;52.048;6.092;2022-09-01T03:09:48;14.70;99.90
55812;DHT22;41742;52.048;6.092;2022-09-01T03:12:14;14.70;99.90
55812;DHT22;41742;52.048;6.092;2022-09-01T03:14:40;14.60;99.90
55812;DHT22;41742;52.048;6.092;2022-09-01T03:17:05;14.70;99.90
55812;DHT22;41742;52.048;6.092;2022-09-01T03:19:33;14.70;99.90
55812;DHT22;41742;52.048;6.092;2022-09-01T03:22:04;14.70;99.90
55812;DHT22;41742;52.048;6.092;2022-09-01T03:24:31;14.60;99.90
55812;DHT22;41742;52.048;6.092;2022-09-01T03:26:57;14.70;99.90
55812;DHT22;41742;52.048;6.092;2022-09-01T03:29:23;14.60;99.90
55812;DHT22;41742;52.048;6.092;2022-09-01T03:31:48;14.60;99.90
55812;DHT22;41742;52.048;6.092;2022-09-01T03:34:15;14.60;99.90
55812;DHT22;41742;52.048;6.092;2022-09-01T03:36:47;14.60;99.90
55812;DHT22;41742;52.048;6.092;2022-09-01T03:39:18;14.60;99.90
55812;DHT22;41742;52.048;6.092;2022-09-01T03:41:43;14.60;99.90
55812;DHT22;41742;52.048;6.092;2022-09-01T03:44:11;14.60;99.90
55812;DHT22;41742;52.048;6.092;2022-09-01T03:46:42;14.60;99.90
55812;DHT22;41742;52.048;6.092;2022-09-01T03:49:08;14.60;99.90
55812;DHT22;41742;52.048;6.092;2022-09-01T03:51:37;14.60;99.90
55812;DHT22;41742;52.048;6.092;2022-09-01T03:54:03;14.60;99.90
55812;DHT22;41742;52.048;6.092;2022-09-01T03:56:29;14.60;99.90
55812;DHT22;41742;52.048;6.092;2022-09-01T03:58:57;14.60;99.90
55812;DHT22;41742;52.048;6.092;2022-09-01T04:01:25;14.50;99.90
55812;DHT22;41742;52.048;6.092;2022-09-01T04:03:51;14.50;99.90
55812;DHT22;41742;52.048;6.092;2022-09-01T04:06:20;14.50;99.90
55812;DHT22;41742;52.048;6.092;2022-09-01T04:08:49;14.40;99.90
55812;DHT22;41742;52.048;6.092;2022-09-01T04:11:19;14.40;99.90
55812;DHT22;41742;52.048;6.092;2022-09-01T04:13:49;14.40;99.90
55812;DHT22;41742;52.048;6.092;2022-09-01T04:16:17;14.40;99.90
55812;DHT22;41742;52.048;6.092;2022-09-01T04:19:02;14.30;99.90
55812;DHT22;41742;52.048;6.092;2022-09-01T04:21:42;14.30;99.90
55812;DHT22;41742;52.048;6.092;2022-09-01T04:24:08;14.30;99.90
55812;DHT22;41742;52.048;6.092;2022-09-01T04:26:35;14.30;99.90
55812;DHT22;41742;52.048;6.092;2022-09-01T04:29:03;14.20;99.90
55812;DHT22;41742;52.048;6.092;2022-09-01T04:31:28;14.10;99.90
55812;DHT22;41742;52.048;6.092;2022-09-01T04:33:56;14.10;99.90
55812;DHT22;41742;52.048;6.092;2022-09-01T04:36:25;14.10;99.90
55812;DHT22;41742;52.048;6.092;2022-09-01T04:38:57;14.10;99.90
55812;DHT22;41742;52.048;6.092;2022-09-01T04:41:26;14.00;99.90
55812;DHT22;41742;52.048;6.092;2022-09-01T04:43:56;14.00;99.90
55812;DHT22;41742;52.048;6.092;2022-09-01T04:46:26;14.00;99.90
55812;DHT22;41742;52.048;6.092;2022-09-01T04:48:57;13.90;99.90
55812;DHT22;41742;52.048;6.092;2022-09-01T04:51:24;13.90;99.90
55812;DHT22;41742;52.048;6.092;2022-09-01T04:53:54;14.00;99.90
55812;DHT22;41742;52.048;6.092;2022-09-01T04:56:23;14.00;99.90
55812;DHT22;41742;52.048;6.092;2022-09-01T04:59:04;14.00;99.90
55812;DHT22;41742;52.048;6.092;2022-09-01T05:01:33;13.90;99.90
55812;DHT22;41742;52.048;6.092;2022-09-01T05:04:13;13.80;99.90
55812;DHT22;41742;52.048;6.092;2022-09-01T05:06:43;13.70;99.90
55812;DHT22;41742;52.048;6.092;2022-09-01T05:09:10;13.70;99.90
55812;DHT22;41742;52.048;6.092;2022-09-01T05:11:55;13.70;99.90
55812;DHT22;41742;52.048;6.092;2022-09-01T05:14:27;13.70;99.90
55812;DHT22;41742;52.048;6.092;2022-09-01T05:16:57;13.70;99.90
55812;DHT22;41742;52.048;6.092;2022-09-01T05:19:25;13.70;99.90
55812;DHT22;41742;52.048;6.092;2022-09-01T05:21:54;13.70;99.90
55812;DHT22;41742;52.048;6.092;2022-09-01T05:24:23;13.70;99.90
55812;DHT22;41742;52.048;6.092;2022-09-01T05:26:51;13.60;99.90
55812;DHT22;41742;52.048;6.092;2022-09-01T05:29:17;13.50;99.90
55812;DHT22;41742;52.048;6.092;2022-09-01T05:31:47;13.50;99.90
55812;DHT22;41742;52.048;6.092;2022-09-01T05:34:14;13.60;99.90
55812;DHT22;41742;52.048;6.092;2022-09-01T05:36:48;13.50;99.90
55812;DHT22;41742;52.048;6.092;2022-09-01T05:39:16;13.50;99.90
55812;DHT22;41742;52.048;6.092;2022-09-01T05:41:42;13.50;99.90
55812;DHT22;41742;52.048;6.092;2022-09-01T05:44:08;13.50;99.90
55812;DHT22;41742;52.048;6.092;2022-09-01T05:46:36;13.50;99.90
55812;DHT22;41742;52.048;6.092;2022-09-01T05:49:05;13.50;99.90
55812;DHT22;41742;52.048;6.092;2022-09-01T05:51:41;13.50;99.90
55812;DHT22;41742;52.048;6.092;2022-09-01T05:54:08;13.60;99.90
55812;DHT22;41742;52.048;6.092;2022-09-01T05:56:35;13.70;99.90
55812;DHT22;41742;52.048;6.092;2022-09-01T05:59:05;13.90;99.90
55812;DHT22;41742;52.048;6.092;2022-09-01T06:01:31;14.00;99.90
55812;DHT22;41742;52.048;6.092;2022-09-01T06:04:01;14.00;99.90
55812;DHT22;41742;52.048;6.092;2022-09-01T06:06:35;14.00;99.90
55812;DHT22;41742;52.048;6.092;2022-09-01T06:09:05;14.10;99.90
55812;DHT22;41742;52.048;6.092;2022-09-01T06:11:32;14.10;99.90
55812;DHT22;41742;52.048;6.092;2022-09-01T06:13:59;14.20;99.90
55812;DHT22;41742;52.048;6.092;2022-09-01T06:16:26;14.30;99.90
55812;DHT22;41742;52.048;6.092;2022-09-01T06:18:53;14.30;99.90
55812;DHT22;41742;52.048;6.092;2022-09-01T06:21:25;14.50;99.90
55812;DHT22;41742;52.048;6.092;2022-09-01T06:23:55;14.60;99.90
55812;DHT22;41742;52.048;6.092;2022-09-01T06:26:29;14.70;99.90
55812;DHT22;41742;52.048;6.092;2022-09-01T06:29:00;14.80;99.90
55812;DHT22;41742;52.048;6.092;2022-09-01T06:31:29;14.90;99.90
55812;DHT22;41742;52.048;6.092;2022-09-01T06:34:03;15.00;99.90
55812;DHT22;41742;52.048;6.092;2022-09-01T06:36:30;15.10;99.90
55812;DHT22;41742;52.048;6.092;2022-09-01T06:39:02;15.20;99.90
55812;DHT22;41742;52.048;6.092;2022-09-01T06:41:28;15.40;99.90
55812;DHT22;41742;52.048;6.092;2022-09-01T06:43:56;15.40;99.90
55812;DHT22;41742;52.048;6.092;2022-09-01T06:46:22;15.50;99.90
55812;DHT22;41742;52.048;6.092;2022-09-01T06:48:48;15.60;99.90
55812;DHT22;41742;52.048;6.092;2022-09-01T06:51:18;15.60;99.90
55812;DHT22;41742;52.048;6.092;2022-09-01T06:53:46;15.70;99.90
55812;DHT22;41742;52.048;6.092;2022-09-01T06:56:16;15.70;99.90
55812;DHT22;41742;52.048;6.092;2022-09-01T06:58:43;15.80;99.90
55812;DHT22;41742;52.048;6.092;2022-09-01T07:01:15;15.90;99.90
55812;DHT22;41742;52.048;6.092;2022-09-01T07:03:50;15.90;99.90
55812;DHT22;41742;52.048;6.092;2022-09-01T07:06:24;16.00;99.90
55812;DHT22;41742;52.048;6.092;2022-09-01T07:09:24;16.10;99.90
55812;DHT22;41742;52.048;6.092;2022-09-01T07:12:10;16.10;99.90
55812;DHT22;41742;52.048;6.092;2022-09-01T07:14:36;16.20;99.90
55812;DHT22;41742;52.048;6.092;2022-09-01T07:17:02;16.20;99.90
55812;DHT22;41742;52.048;6.092;2022-09-01T07:19:27;16.20;99.90
55812;DHT22;41742;52.048;6.092;2022-09-01T07:21:58;16.20;99.90
55812;DHT22;41742;52.048;6.092;2022-09-01T07:24:25;16.30;99.90
55812;DHT22;41742;52.048;6.092;2022-09-01T07:27:13;16.30;99.90
55812;DHT22;41742;52.048;6.092;2022-09-01T07:29:40;16.40;99.90
55812;DHT22;41742;52.048;6.092;2022-09-01T07:32:05;16.50;99.90
55812;DHT22;41742;52.048;6.092;2022-09-01T07:34:33;16.50;99.90
55812;DHT22;41742;52.048;6.092;2022-09-01T07:37:02;16.60;99.90
55812;DHT22;41742;52.048;6.092;2022-09-01T07:39:28;16.60;99.90
55812;DHT22;41742;52.048;6.092;2022-09-01T07:42:17;16.70;99.90
55812;DHT22;41742;52.048;6.092;2022-09-01T07:45:21;16.70;99.90
55812;DHT22;41742;52.048;6.092;2022-09-01T07:47:58;16.80;99.90
55812;DHT22;41742;52.048;6.092;2022-09-01T07:50:28;16.80;99.90
55812;DHT22;41742;52.048;6.092;2022-09-01T07:52:54;17.00;99.90
55812;DHT22;41742;52.048;6.092;2022-09-01T07:55:20;17.00;99.90
55812;DHT22;41742;52.048;6.092;2022-09-01T07:57:46;17.10;99.90
55812;DHT22;41742;52.048;6.092;2022-09-01T08:00:14;17.20;99.90
55812;DHT22;41742;52.048;6.092;2022-09-01T08:02:41;17.30;99.90
55812;DHT22;41742;52.048;6.092;2022-09-01T08:05:15;17.40;99.90
55812;DHT22;41742;52.048;6.092;2022-09-01T08:07:47;17.60;99.20
55812;DHT22;41742;52.048;6.092;2022-09-01T08:10:14;17.80;98.80
55812;DHT22;41742;52.048;6.092;2022-09-01T08:12:41;17.90;99.00
55812;DHT22;41742;52.048;6.092;2022-09-01T08:15:09;18.00;98.80
55812;DHT22;41742;52.048;6.092;2022-09-01T08:17:37;18.00;98.40
55812;DHT22;41742;52.048;6.092;2022-09-01T08:20:07;18.10;98.40
55812;DHT22;41742;52.048;6.092;2022-09-01T08:22:49;18.10;99.10
55812;DHT22;41742;52.048;6.092;2022-09-01T08:25:19;18.30;97.80
55812;DHT22;41742;52.048;6.092;2022-09-01T08:27:44;18.60;97.30
55812;DHT22;41742;52.048;6.092;2022-09-01T08:30:11;18.60;97.20
55812;DHT22;41742;52.048;6.092;2022-09-01T08:32:38;18.60;97.00
55812;DHT22;41742;52.048;6.092;2022-09-01T08:35:11;18.70;96.80
55812;DHT22;41742;52.048;6.092;2022-09-01T08:37:38;18.80;96.30
55812;DHT22;41742;52.048;6.092;2022-09-01T08:40:06;18.80;96.10
55812;DHT22;41742;52.048;6.092;2022-09-01T08:43:04;19.10;96.20
55812;DHT22;41742;52.048;6.092;2022-09-01T08:45:43;19.10;96.30
55812;DHT22;41742;52.048;6.092;2022-09-01T08:48:15;19.30;96.40
55812;DHT22;41742;52.048;6.092;2022-09-01T08:50:44;19.40;95.50
55812;DHT22;41742;52.048;6.092;2022-09-01T08:53:30;19.50;95.40
55812;DHT22;41742;52.048;6.092;2022-09-01T08:55:58;19.70;94.60
55812;DHT22;41742;52.048;6.092;2022-09-01T08:58:26;19.70;94.60
55812;DHT22;41742;52.048;6.092;2022-09-01T09:00:59;19.80;93.50
55812;DHT22;41742;52.048;6.092;2022-09-01T09:03:56;20.10;93.30
55812;DHT22;41742;52.048;6.092;2022-09-01T09:09:17;20.50;92.50
55812;DHT22;41742;52.048;6.092;2022-09-01T09:12:04;20.50;92.20
55812;DHT22;41742;52.048;6.092;2022-09-01T09:17:31;20.70;91.80
55812;DHT22;41742;52.048;6.092;2022-09-01T09:20:00;20.70;91.20
55812;DHT22;41742;52.048;6.092;2022-09-01T09:22:26;20.70;91.10
55812;DHT22;41742;52.048;6.092;2022-09-01T09:25:00;20.90;90.80
55812;DHT22;41742;52.048;6.092;2022-09-01T09:27:34;21.10;89.50
55812;DHT22;41742;52.048;6.092;2022-09-01T09:30:12;21.10;90.80
55812;DHT22;41742;52.048;6.092;2022-09-01T09:33:02;21.20;90.20
55812;DHT22;41742;52.048;6.092;2022-09-01T09:35:39;21.30;90.00
55812;DHT22;41742;52.048;6.092;2022-09-01T09:43:29;21.70;85.90
55812;DHT22;41742;52.048;6.092;2022-09-01T09:46:20;21.70;85.40
55812;DHT22;41742;52.048;6.092;2022-09-01T09:48:47;21.80;86.40
55812;DHT22;41742;52.048;6.092;2022-09-01T09:51:19;21.90;87.00
55812;DHT22;41742;52.048;6.092;2022-09-01T09:53:45;22.10;84.80
55812;DHT22;41742;52.048;6.092;2022-09-01T09:56:21;22.20;84.50
55812;DHT22;41742;52.048;6.092;2022-09-01T09:58:49;22.20;85.90
55812;DHT22;41742;52.048;6.092;2022-09-01T10:03:51;22.40;82.00
55812;DHT22;41742;52.048;6.092;2022-09-01T10:06:40;22.50;83.90
55812;DHT22;41742;52.048;6.092;2022-09-01T10:11:55;22.70;83.10
55812;DHT22;41742;52.048;6.092;2022-09-01T10:14:29;22.80;83.40
55812;DHT22;41742;52.048;6.092;2022-09-01T10:17:02;22.80;82.90
55812;DHT22;41742;52.048;6.092;2022-09-01T10:19:31;23.00;80.90
55812;DHT22;41742;52.048;6.092;2022-09-01T10:21:58;23.10;80.60
55812;DHT22;41742;52.048;6.092;2022-09-01T10:24:35;23.10;78.60
55812;DHT22;41742;52.048;6.092;2022-09-01T10:27:26;23.20;79.30
55812;DHT22;41742;52.048;6.092;2022-09-01T10:29:55;23.30;79.70
55812;DHT22;41742;52.048;6.092;2022-09-01T10:32:26;23.50;79.50
55812;DHT22;41742;52.048;6.092;2022-09-01T10:34:53;23.70;76.90
55812;DHT22;41742;52.048;6.092;2022-09-01T10:37:20;23.80;77.50
55812;DHT22;41742;52.048;6.092;2022-09-01T10:40:18;24.00;77.50
55812;DHT22;41742;52.048;6.092;2022-09-01T10:42:46;24.10;74.90
55812;DHT22;41742;52.048;6.092;2022-09-01T10:45:35;24.20;76.10
55812;DHT22;41742;52.048;6.092;2022-09-01T11:07:02;25.00;71.90
55812;DHT22;41742;52.048;6.092;2022-09-01T11:09:32;25.20;72.20
55812;DHT22;41742;52.048;6.092;2022-09-01T11:12:24;25.40;72.90
55812;DHT22;41742;52.048;6.092;2022-09-01T11:14:58;25.50;71.20
55812;DHT22;41742;52.048;6.092;2022-09-01T11:17:32;25.60;70.60
55812;DHT22;41742;52.048;6.092;2022-09-01T11:20:27;25.80;69.90
55812;DHT22;41742;52.048;6.092;2022-09-01T11:23:23;25.90;71.00
55812;DHT22;41742;52.048;6.092;2022-09-01T11:26:00;26.20;70.70
55812;DHT22;41742;52.048;6.092;2022-09-01T11:31:02;26.30;68.20
55812;DHT22;41742;52.048;6.092;2022-09-01T11:41:54;27.10;68.40
55812;DHT22;41742;52.048;6.092;2022-09-01T11:44:27;27.30;67.40
55812;DHT22;41742;52.048;6.092;2022-09-01T11:47:06;27.40;66.10
55812;DHT22;41742;52.048;6.092;2022-09-01T11:49:44;27.60;67.40
55812;DHT22;41742;52.048;6.092;2022-09-01T11:52:15;27.60;66.00
55812;DHT22;41742;52.048;6.092;2022-09-01T11:54:42;27.60;66.00
55812;DHT22;41742;52.048;6.092;2022-09-01T11:59:52;28.10;64.50
55812;DHT22;41742;52.048;6.092;2022-09-01T12:02:24;28.50;64.90
55812;DHT22;41742;52.048;6.092;2022-09-01T12:04:52;28.50;64.60
55812;DHT22;41742;52.048;6.092;2022-09-01T12:07:39;28.80;63.90
55812;DHT22;41742;52.048;6.092;2022-09-01T12:10:31;28.60;63.50
55812;DHT22;41742;52.048;6.092;2022-09-01T12:15:27;28.80;63.50
55812;DHT22;41742;52.048;6.092;2022-09-01T12:18:14;29.30;63.60
55812;DHT22;41742;52.048;6.092;2022-09-01T12:20:41;29.30;63.00
55812;DHT22;41742;52.048;6.092;2022-09-01T12:26:07;29.80;60.60
55812;DHT22;41742;52.048;6.092;2022-09-01T12:28:34;29.80;60.70
55812;DHT22;41742;52.048;6.092;2022-09-01T12:31:03;29.90;59.40
55812;DHT22;41742;52.048;6.092;2022-09-01T12:33:31;29.80;59.30
55812;DHT22;41742;52.048;6.092;2022-09-01T12:36:24;29.80;59.30
55812;DHT22;41742;52.048;6.092;2022-09-01T12:38:51;29.90;59.90
55812;DHT22;41742;52.048;6.092;2022-09-01T12:41:36;30.10;58.80
55812;DHT22;41742;52.048;6.092;2022-09-01T12:44:32;30.30;58.50
55812;DHT22;41742;52.048;6.092;2022-09-01T12:47:02;30.50;57.90
55812;DHT22;41742;52.048;6.092;2022-09-01T12:49:45;30.10;57.70
55812;DHT22;41742;52.048;6.092;2022-09-01T12:52:32;30.00;58.20
55812;DHT22;41742;52.048;6.092;2022-09-01T12:57:39;30.30;58.40
55812;DHT22;41742;52.048;6.092;2022-09-01T13:02:38;29.60;56.80
55812;DHT22;41742;52.048;6.092;2022-09-01T13:05:38;29.70;58.40
55812;DHT22;41742;52.048;6.092;2022-09-01T13:08:17;30.00;57.50
55812;DHT22;41742;52.048;6.092;2022-09-01T13:10:48;30.20;56.50
55812;DHT22;41742;52.048;6.092;2022-09-01T13:13:16;30.40;57.00
55812;DHT22;41742;52.048;6.092;2022-09-01T13:15:48;29.60;56.20
55812;DHT22;41742;52.048;6.092;2022-09-01T13:18:19;29.90;56.50
55812;DHT22;41742;52.048;6.092;2022-09-01T13:20:46;30.00;56.10
55812;DHT22;41742;52.048;6.092;2022-09-01T13:23:12;30.20;55.00
55812;DHT22;41742;52.048;6.092;2022-09-01T13:25:39;30.40;55.50
55812;DHT22;41742;52.048;6.092;2022-09-01T13:28:05;30.60;54.90
55812;DHT22;41742;52.048;6.092;2022-09-01T13:30:33;30.80;56.30
55812;DHT22;41742;52.048;6.092;2022-09-01T13:32:59;31.10;55.30
55812;DHT22;41742;52.048;6.092;2022-09-01T13:35:25;31.10;55.30
55812;DHT22;41742;52.048;6.092;2022-09-01T13:37:50;31.40;53.70
55812;DHT22;41742;52.048;6.092;2022-09-01T13:40:18;31.10;53.80
55812;DHT22;41742;52.048;6.092;2022-09-01T13:42:46;31.20;53.80
55812;DHT22;41742;52.048;6.092;2022-09-01T13:45:13;31.40;52.60
55812;DHT22;41742;52.048;6.092;2022-09-01T13:47:39;31.70;52.70
55812;DHT22;41742;52.048;6.092;2022-09-01T13:50:05;31.90;52.80
55812;DHT22;41742;52.048;6.092;2022-09-01T13:52:31;32.00;53.10
55812;DHT22;41742;52.048;6.092;2022-09-01T13:54:57;31.90;53.30
55812;DHT22;41742;52.048;6.092;2022-09-01T13:57:23;32.20;52.40
55812;DHT22;41742;52.048;6.092;2022-09-01T13:59:49;32.10;51.70
55812;DHT22;41742;52.048;6.092;2022-09-01T14:02:15;31.30;53.00
55812;DHT22;41742;52.048;6.092;2022-09-01T14:04:40;31.70;53.00
55812;DHT22;41742;52.048;6.092;2022-09-01T14:07:06;31.70;52.10
55812;DHT22;41742;52.048;6.092;2022-09-01T14:09:32;31.90;52.10
55812;DHT22;41742;52.048;6.092;2022-09-01T14:11:57;31.90;52.30
55812;DHT22;41742;52.048;6.092;2022-09-01T14:14:24;31.90;52.50
55812;DHT22;41742;52.048;6.092;2022-09-01T14:16:50;31.90;51.80
55812;DHT22;41742;52.048;6.092;2022-09-01T14:19:16;31.50;51.80
55812;DHT22;41742;52.048;6.092;2022-09-01T14:21:42;30.70;52.50
55812;DHT22;41742;52.048;6.092;2022-09-01T14:24:08;31.10;53.70
55812;DHT22;41742;52.048;6.092;2022-09-01T14:26:34;31.70;52.00
55812;DHT22;41742;52.048;6.092;2022-09-01T14:28:59;30.90;52.90
55812;DHT22;41742;52.048;6.092;2022-09-01T14:31:27;31.30;52.90
55812;DHT22;41742;52.048;6.092;2022-09-01T14:33:54;31.40;51.80
55812;DHT22;41742;52.048;6.092;2022-09-01T14:36:22;31.60;51.10
55812;DHT22;41742;52.048;6.092;2022-09-01T14:38:49;31.80;51.80
55812;DHT22;41742;52.048;6.092;2022-09-01T14:41:16;31.80;51.50
55812;DHT22;41742;52.048;6.092;2022-09-01T14:43:45;32.20;50.50
55812;DHT22;41742;52.048;6.092;2022-09-01T14:46:11;32.10;50.10
55812;DHT22;41742;52.048;6.092;2022-09-01T14:48:38;31.40;50.20
55812;DHT22;41742;52.048;6.092;2022-09-01T14:51:05;31.40;52.50
55812;DHT22;41742;52.048;6.092;2022-09-01T14:53:31;31.70;52.30
55812;DHT22;41742;52.048;6.092;2022-09-01T14:55:58;31.70;51.20
55812;DHT22;41742;52.048;6.092;2022-09-01T14:58:25;31.90;50.90
55812;DHT22;41742;52.048;6.092;2022-09-01T15:00:52;31.70;51.30
55812;DHT22;41742;52.048;6.092;2022-09-01T15:03:20;31.90;50.00
55812;DHT22;41742;52.048;6.092;2022-09-01T15:05:46;31.60;49.90
55812;DHT22;41742;52.048;6.092;2022-09-01T15:08:13;32.20;50.10
55812;DHT22;41742;52.048;6.092;2022-09-01T15:10:39;32.30;50.50
55812;DHT22;41742;52.048;6.092;2022-09-01T15:13:05;32.30;49.60
55812;DHT22;41742;52.048;6.092;2022-09-01T15:15:31;32.30;50.00
55812;DHT22;41742;52.048;6.092;2022-09-01T15:17:58;32.40;50.00
55812;DHT22;41742;52.048;6.092;2022-09-01T15:20:24;32.20;50.00
55812;DHT22;41742;52.048;6.092;2022-09-01T15:23:09;32.10;50.50
55812;DHT22;41742;52.048;6.092;2022-09-01T15:25:36;31.70;50.90
55812;DHT22;41742;52.048;6.092;2022-09-01T15:28:03;32.10;51.50
55812;DHT22;41742;52.048;6.092;2022-09-01T15:30:28;32.20;50.10
55812;DHT22;41742;52.048;6.092;2022-09-01T15:32:54;31.50;49.70
55812;DHT22;41742;52.048;6.092;2022-09-01T15:35:20;30.70;51.60
55812;DHT22;41742;52.048;6.092;2022-09-01T15:37:47;30.70;52.00
55812;DHT22;41742;52.048;6.092;2022-09-01T15:40:14;30.80;50.40
55812;DHT22;41742;52.048;6.092;2022-09-01T15:42:40;30.90;51.60
55812;DHT22;41742;52.048;6.092;2022-09-01T15:45:13;31.40;50.50
55812;DHT22;41742;52.048;6.092;2022-09-01T15:47:39;31.70;50.30
55812;DHT22;41742;52.048;6.092;2022-09-01T15:50:08;31.20;49.50
55812;DHT22;41742;52.048;6.092;2022-09-01T15:52:55;30.20;50.80
55812;DHT22;41742;52.048;6.092;2022-09-01T15:55:45;30.50;51.80
55812;DHT22;41742;52.048;6.092;2022-09-01T15:58:13;30.60;51.70
55812;DHT22;41742;52.048;6.092;2022-09-01T16:00:40;30.70;51.60
55812;DHT22;41742;52.048;6.092;2022-09-01T16:03:06;30.70;51.70
55812;DHT22;41742;52.048;6.092;2022-09-01T16:05:35;30.50;51.50
55812;DHT22;41742;52.048;6.092;2022-09-01T16:08:02;30.40;51.60
55812;DHT22;41742;52.048;6.092;2022-09-01T16:10:30;30.70;51.50
55812;DHT22;41742;52.048;6.092;2022-09-01T16:12:56;30.90;50.80
55812;DHT22;41742;52.048;6.092;2022-09-01T16:15:23;30.80;51.00
55812;DHT22;41742;52.048;6.092;2022-09-01T16:17:58;30.80;50.50
55812;DHT22;41742;52.048;6.092;2022-09-01T16:20:35;30.70;50.60
55812;DHT22;41742;52.048;6.092;2022-09-01T16:23:17;30.80;51.30
55812;DHT22;41742;52.048;6.092;2022-09-01T16:25:44;30.80;50.30
55812;DHT22;41742;52.048;6.092;2022-09-01T16:28:30;30.80;51.20
55812;DHT22;41742;52.048;6.092;2022-09-01T16:31:02;30.80;50.70
55812;DHT22;41742;52.048;6.092;2022-09-01T16:33:28;30.90;50.80
55812;DHT22;41742;52.048;6.092;2022-09-01T16:36:27;30.70;51.30
55812;DHT22;41742;52.048;6.092;2022-09-01T16:41:34;30.10;51.00
55812;DHT22;41742;52.048;6.092;2022-09-01T16:55:57;28.70;53.90
55812;DHT22;41742;52.048;6.092;2022-09-01T17:04:13;28.10;53.90
55812;DHT22;41742;52.048;6.092;2022-09-01T17:10:05;27.80;53.90
55812;DHT22;41742;52.048;6.092;2022-09-01T17:12:54;27.60;54.30
55812;DHT22;41742;52.048;6.092;2022-09-01T17:15:30;27.30;54.90
55812;DHT22;41742;52.048;6.092;2022-09-01T17:18:28;27.20;54.80
55812;DHT22;41742;52.048;6.092;2022-09-01T17:20:58;27.00;55.30